Time;durP1;ratioP1;P1;durP2;ratioP2;P2;SDS_P1;SDS_P2;PMS_P1;PMS_P2;Temp;Humidity;BMP_temperature;BMP_pressure;BME280_temperature;BME280_humidity;BME280_pressure;Samples;Min_cycle;Max_cycle;Signal;HPM_P1;HPM_P2
2021/04/14 00:00:03;;;;;;;5.37;2.20;;;;;;;;;;5020125;28;20211;-78
2021/04/14 00:02:28;;;;;;;5.77;1.90;;;;;;;;;;5003044;28;20563;-76
2021/04/14 00:04:54;;;;;;;8.70;2.20;;;;;;;;;;5021720;28;20269;-77
2021/04/14 00:07:20;;;;;;;6.40;2.70;;;;;;;;;;5021971;28;20776;-78
2021/04/14 00:09:45;;;;;;;5.70;2.30;;;;;;;;;;5011105;28;20226;-76
2021/04/14 00:12:11;;;;;;;5.60;2.20;;;;;;;;;;5022367;28;20218;-77
2021/04/14 00:14:40;;;;;;;6.63;2.57;;;;;;;;;;5022543;28;20209;-77
2021/04/14 00:17:06;;;;;;;7.10;2.43;;;;;;;;;;5017350;28;20236;-77
2021/04/14 00:19:32;;;;;;;7.40;2.30;;;;;;;;;;5024678;28;20682;-76
2021/04/14 00:21:58;;;;;;;7.37;2.53;;;;;;;;;;5012347;28;20188;-77
2021/04/14 00:24:24;;;;;;;6.90;2.23;;;;;;;;;;5024051;28;20642;-77
2021/04/14 00:26:49;;;;;;;7.17;2.60;;;;;;;;;;5023380;28;20241;-78
2021/04/14 00:29:15;;;;;;;7.33;2.80;;;;;;;;;;5026873;28;20269;-77
2021/04/14 00:31:41;;;;;;;5.60;2.67;;;;;;;;;;5022379;28;20176;-75
2021/04/14 00:34:13;;;;;;;5.07;3.07;;;;;;;;;;5018008;28;20218;-77
2021/04/14 00:36:42;;;;;;;10.60;2.90;;;;;;;;;;5018645;28;20328;-76
2021/04/14 00:39:09;;;;;;;9.33;2.70;;;;;;;;;;5019997;28;20302;-77
2021/04/14 00:41:35;;;;;;;6.93;2.70;;;;;;;;;;5021007;28;20210;-77
2021/04/14 00:44:01;;;;;;;8.63;2.70;;;;;;;;;;5021703;28;20195;-77
2021/04/14 00:46:26;;;;;;;7.53;2.83;;;;;;;;;;5026549;28;20520;-76
2021/04/14 00:48:52;;;;;;;8.73;2.83;;;;;;;;;;5025319;28;20217;-77
2021/04/14 00:51:19;;;;;;;9.30;2.90;;;;;;;;;;5027776;28;20199;-77
2021/04/14 00:53:44;;;;;;;6.80;2.70;;;;;;;;;;5021954;28;20207;-77
2021/04/14 00:56:10;;;;;;;5.67;2.63;;;;;;;;;;5022473;28;20631;-77
2021/04/14 00:58:35;;;;;;;5.70;2.57;;;;;;;;;;5027965;28;20238;-77
2021/04/14 01:01:00;;;;;;;7.03;2.50;;;;;;;;;;5017130;28;20593;-77
2021/04/14 01:03:31;;;;;;;8.60;2.50;;;;;;;;;;5023716;28;20198;-77
2021/04/14 01:06:04;;;;;;;9.40;2.60;;;;;;;;;;5029195;28;20593;-77
2021/04/14 01:08:29;;;;;;;12.13;2.77;;;;;;;;;;5024369;28;20627;-77
2021/04/14 01:10:55;;;;;;;7.03;3.13;;;;;;;;;;5022595;28;20210;-77
2021/04/14 01:13:20;;;;;;;4.70;2.47;;;;;;;;;;5020871;28;20305;-78
2021/04/14 01:15:48;;;;;;;6.27;3.07;;;;;;;;;;5022742;28;20207;-77
2021/04/14 01:18:16;;;;;;;8.50;2.43;;;;;;;;;;5014168;28;20682;-77
2021/04/14 01:20:41;;;;;;;6.83;2.70;;;;;;;;;;5025675;28;20356;-77
2021/04/14 01:23:08;;;;;;;9.20;2.67;;;;;;;;;;5016542;28;20575;-77
2021/04/14 01:25:41;;;;;;;6.30;2.73;;;;;;;;;;5022527;28;20260;-77
2021/04/14 01:28:11;;;;;;;7.40;3.10;;;;;;;;;;5021090;28;20187;-77
2021/04/14 01:30:38;;;;;;;7.90;3.07;;;;;;;;;;5016942;28;20210;-77
2021/04/14 01:33:03;;;;;;;9.00;2.60;;;;;;;;;;5017012;28;20202;-76
2021/04/14 01:35:29;;;;;;;10.13;2.97;;;;;;;;;;5013072;28;20206;-77
2021/04/14 01:37:55;;;;;;;8.13;2.83;;;;;;;;;;5021744;28;20199;-75
2021/04/14 01:40:23;;;;;;;4.77;2.40;;;;;;;;;;5020700;28;20215;-78
2021/04/14 01:42:48;;;;;;;6.47;2.60;;;;;;;;;;5001328;28;20198;-77
2021/04/14 01:45:21;;;;;;;6.23;2.87;;;;;;;;;;5018173;28;20191;-77
2021/04/14 01:47:46;;;;;;;4.70;2.83;;;;;;;;;;5016034;28;20203;-75
2021/04/14 01:50:12;;;;;;;7.40;2.73;;;;;;;;;;5021018;28;20798;-76
2021/04/14 01:52:37;;;;;;;8.77;2.83;;;;;;;;;;5022398;28;20224;-77
2021/04/14 01:55:04;;;;;;;8.70;2.73;;;;;;;;;;5013032;28;20207;-77
2021/04/14 01:57:29;;;;;;;7.23;2.33;;;;;;;;;;5013241;28;20195;-77
2021/04/14 01:59:55;;;;;;;8.77;3.30;;;;;;;;;;5017646;28;20272;-75
2021/04/14 02:02:20;;;;;;;6.23;2.50;;;;;;;;;;5019445;28;20648;-77
2021/04/14 02:04:46;;;;;;;8.30;3.20;;;;;;;;;;5018244;28;20202;-77
2021/04/14 02:07:11;;;;;;;9.67;4.27;;;;;;;;;;5011625;28;20257;-78
2021/04/14 02:09:36;;;;;;;11.53;3.33;;;;;;;;;;5020026;28;20796;-77
2021/04/14 02:12:02;;;;;;;9.47;3.23;;;;;;;;;;5020639;28;20195;-77
2021/04/14 02:14:28;;;;;;;7.67;2.80;;;;;;;;;;5021732;28;20202;-77
2021/04/14 02:16:53;;;;;;;12.73;2.73;;;;;;;;;;5012075;28;20203;-76
2021/04/14 02:19:19;;;;;;;7.77;3.17;;;;;;;;;;5016581;28;20213;-77
2021/04/14 02:21:44;;;;;;;8.17;3.10;;;;;;;;;;5020877;28;20211;-77
2021/04/14 02:24:09;;;;;;;8.93;2.83;;;;;;;;;;5011661;28;20184;-77
2021/04/14 02:26:34;;;;;;;8.17;3.00;;;;;;;;;;5015320;28;20565;-77
2021/04/14 02:29:00;;;;;;;11.20;2.90;;;;;;;;;;5020952;28;20570;-77
2021/04/14 02:31:30;;;;;;;7.93;2.70;;;;;;;;;;5019620;28;20244;-77
2021/04/14 02:34:06;;;;;;;8.50;3.43;;;;;;;;;;5017740;28;20207;-77
2021/04/14 02:36:32;;;;;;;9.90;3.30;;;;;;;;;;5019754;28;20578;-77
2021/04/14 02:38:58;;;;;;;9.83;3.37;;;;;;;;;;5025947;28;20214;-77
2021/04/14 02:41:23;;;;;;;5.63;2.80;;;;;;;;;;5016703;28;20210;-77
2021/04/14 02:43:50;;;;;;;8.20;3.00;;;;;;;;;;5016427;28;20195;-77
2021/04/14 02:46:16;;;;;;;9.67;3.03;;;;;;;;;;5021067;28;20191;-77
2021/04/14 02:48:41;;;;;;;9.27;3.23;;;;;;;;;;5021005;28;20207;-77
2021/04/14 02:51:07;;;;;;;8.20;3.40;;;;;;;;;;5017818;28;20266;-77
2021/04/14 02:53:33;;;;;;;6.83;3.30;;;;;;;;;;5024011;28;20248;-77
2021/04/14 02:55:58;;;;;;;7.10;3.47;;;;;;;;;;5026522;28;20222;-77
2021/04/14 02:58:23;;;;;;;6.13;3.10;;;;;;;;;;5024047;28;20191;-76
2021/04/14 03:00:51;;;;;;;4.47;2.80;;;;;;;;;;5025389;28;20575;-78
2021/04/14 03:03:17;;;;;;;8.17;2.63;;;;;;;;;;5016558;28;20205;-75
2021/04/14 03:05:43;;;;;;;8.77;2.97;;;;;;;;;;5018235;28;20195;-77
2021/04/14 03:08:08;;;;;;;4.07;2.43;;;;;;;;;;5021024;28;20205;-76
2021/04/14 03:10:34;;;;;;;6.17;2.43;;;;;;;;;;5016743;28;20293;-77
2021/04/14 03:13:01;;;;;;;6.03;2.67;;;;;;;;;;5020247;28;20662;-78
2021/04/14 03:15:31;;;;;;;3.80;2.37;;;;;;;;;;5017866;28;20191;-77
2021/04/14 03:17:56;;;;;;;5.67;2.60;;;;;;;;;;5013905;28;20197;-77
2021/04/14 03:20:23;;;;;;;10.30;3.57;;;;;;;;;;5009546;28;20207;-77
2021/04/14 03:22:50;;;;;;;10.97;2.97;;;;;;;;;;5013270;28;20182;-77
2021/04/14 03:25:16;;;;;;;5.87;2.70;;;;;;;;;;5018296;28;20186;-77
2021/04/14 03:27:41;;;;;;;6.70;3.10;;;;;;;;;;5018998;28;20548;-77
2021/04/14 03:30:08;;;;;;;5.43;2.47;;;;;;;;;;5019371;28;20249;-78
2021/04/14 03:32:34;;;;;;;8.57;2.80;;;;;;;;;;5016725;28;20221;-77
2021/04/14 03:34:59;;;;;;;9.90;2.83;;;;;;;;;;5023400;28;20190;-77
2021/04/14 03:37:25;;;;;;;6.07;2.37;;;;;;;;;;5015650;28;20304;-77
2021/04/14 03:39:50;;;;;;;6.47;2.50;;;;;;;;;;5017360;28;20249;-77
2021/04/14 03:42:17;;;;;;;8.27;3.07;;;;;;;;;;5019148;28;20198;-77
2021/04/14 03:44:42;;;;;;;8.70;2.90;;;;;;;;;;5026397;28;20228;-76
2021/04/14 03:47:07;;;;;;;9.17;3.10;;;;;;;;;;4997384;28;20642;-77
2021/04/14 03:49:33;;;;;;;9.77;2.80;;;;;;;;;;5015031;28;20206;-77
2021/04/14 03:52:01;;;;;;;6.00;2.57;;;;;;;;;;5023139;28;20692;-77
2021/04/14 03:54:28;;;;;;;9.27;3.23;;;;;;;;;;5022908;28;20203;-77
2021/04/14 03:56:53;;;;;;;10.60;3.27;;;;;;;;;;5024393;28;20245;-77
2021/04/14 03:59:18;;;;;;;11.17;3.17;;;;;;;;;;4999174;28;20301;-78
2021/04/14 04:01:44;;;;;;;6.03;2.87;;;;;;;;;;5012350;28;20191;-77
2021/04/14 04:04:09;;;;;;;7.17;2.67;;;;;;;;;;5015036;28;20253;-77
2021/04/14 04:06:34;;;;;;;5.87;2.80;;;;;;;;;;5023230;28;20203;-77
2021/04/14 04:08:59;;;;;;;7.80;3.13;;;;;;;;;;5025412;28;20217;-76
2021/04/14 04:11:25;;;;;;;8.67;3.47;;;;;;;;;;5029103;28;20209;-76
2021/04/14 04:13:52;;;;;;;9.53;3.00;;;;;;;;;;5020948;28;20219;-75
2021/04/14 04:16:18;;;;;;;17.73;3.70;;;;;;;;;;5018127;28;20201;-77
2021/04/14 04:18:43;;;;;;;6.87;3.20;;;;;;;;;;5000835;28;20207;-76
2021/04/14 04:21:10;;;;;;;5.87;2.67;;;;;;;;;;5024673;28;20187;-76
2021/04/14 04:23:36;;;;;;;7.77;3.10;;;;;;;;;;5025094;28;20823;-76
2021/04/14 04:26:02;;;;;;;6.60;3.10;;;;;;;;;;5021190;28;20194;-77
2021/04/14 04:28:27;;;;;;;7.60;3.30;;;;;;;;;;5018274;28;20574;-76
2021/04/14 04:30:53;;;;;;;9.03;3.40;;;;;;;;;;5017577;28;20838;-76
2021/04/14 04:33:21;;;;;;;5.73;2.70;;;;;;;;;;5028228;28;20678;-75
2021/04/14 04:35:46;;;;;;;9.27;3.50;;;;;;;;;;5019347;28;20956;-76
2021/04/14 04:38:12;;;;;;;6.13;2.93;;;;;;;;;;5021569;28;20221;-76
2021/04/14 04:40:37;;;;;;;4.53;2.57;;;;;;;;;;5019907;28;20194;-77
2021/04/14 04:43:03;;;;;;;7.37;3.07;;;;;;;;;;5000506;28;20193;-77
2021/04/14 04:45:30;;;;;;;6.90;2.90;;;;;;;;;;5022701;28;20195;-77
2021/04/14 04:47:56;;;;;;;5.17;2.90;;;;;;;;;;5001732;28;20226;-77
2021/04/14 04:50:27;;;;;;;8.73;2.93;;;;;;;;;;5018971;28;20314;-77
2021/04/14 04:52:57;;;;;;;7.53;2.93;;;;;;;;;;5022469;28;20219;-77
2021/04/14 04:55:23;;;;;;;7.80;2.50;;;;;;;;;;5013485;28;20227;-77
2021/04/14 04:57:50;;;;;;;5.07;2.73;;;;;;;;;;5014716;28;20212;-77
2021/04/14 05:00:16;;;;;;;6.67;2.70;;;;;;;;;;5024633;28;20652;-77
2021/04/14 05:02:41;;;;;;;7.97;2.70;;;;;;;;;;5017811;28;20285;-77
2021/04/14 05:05:13;;;;;;;7.27;3.10;;;;;;;;;;5019739;28;20692;-77
2021/04/14 05:07:39;;;;;;;6.30;2.83;;;;;;;;;;5014338;28;20199;-77
2021/04/14 05:10:05;;;;;;;7.63;2.77;;;;;;;;;;5025881;28;20260;-77
2021/04/14 05:12:30;;;;;;;7.90;2.80;;;;;;;;;;5016558;28;20723;-78
2021/04/14 05:14:55;;;;;;;10.53;3.70;;;;;;;;;;5010372;28;20207;-76
2021/04/14 05:17:21;;;;;;;11.17;3.40;;;;;;;;;;5021829;28;20677;-77
2021/04/14 05:19:46;;;;;;;8.90;3.30;;;;;;;;;;5013456;28;20204;-77
2021/04/14 05:22:12;;;;;;;8.10;3.43;;;;;;;;;;5021149;28;20192;-76
2021/04/14 05:24:37;;;;;;;8.23;2.63;;;;;;;;;;5008035;28;20214;-77
2021/04/14 05:27:02;;;;;;;8.13;3.07;;;;;;;;;;5024149;28;20656;-76
2021/04/14 05:29:27;;;;;;;4.90;3.00;;;;;;;;;;5014812;28;20215;-76
2021/04/14 05:31:53;;;;;;;10.07;3.70;;;;;;;;;;5014239;28;20195;-76
2021/04/14 05:34:18;;;;;;;5.50;3.10;;;;;;;;;;5002767;28;20207;-77
2021/04/14 05:36:46;;;;;;;7.30;3.17;;;;;;;;;;5012947;28;20191;-77
2021/04/14 05:39:11;;;;;;;5.67;3.27;;;;;;;;;;5022484;28;20297;-77
2021/04/14 05:41:37;;;;;;;6.87;3.20;;;;;;;;;;5024021;28;20678;-77
2021/04/14 05:44:02;;;;;;;12.27;3.50;;;;;;;;;;5016041;28;20230;-75
2021/04/14 05:46:27;;;;;;;5.00;3.33;;;;;;;;;;5013098;28;20297;-77
2021/04/14 05:48:53;;;;;;;9.77;3.27;;;;;;;;;;5014014;28;20211;-77
2021/04/14 05:51:22;;;;;;;8.60;2.97;;;;;;;;;;5013624;28;20229;-77
2021/04/14 05:53:49;;;;;;;7.03;3.37;;;;;;;;;;5002005;28;20218;-76
2021/04/14 05:56:15;;;;;;;9.90;3.80;;;;;;;;;;5014428;28;20580;-77
2021/04/14 05:58:41;;;;;;;6.83;4.43;;;;;;;;;;5012640;28;20686;-75
2021/04/14 06:01:08;;;;;;;6.23;3.60;;;;;;;;;;5016166;28;20199;-77
2021/04/14 06:03:34;;;;;;;12.13;3.90;;;;;;;;;;5017243;28;21673;-77
2021/04/14 06:06:02;;;;;;;11.90;3.70;;;;;;;;;;5022566;28;20183;-77
2021/04/14 06:08:28;;;;;;;9.47;4.07;;;;;;;;;;5005279;28;20232;-76
2021/04/14 06:10:54;;;;;;;10.10;3.60;;;;;;;;;;5023138;28;20228;-77
2021/04/14 06:13:20;;;;;;;11.93;4.53;;;;;;;;;;5020437;28;20253;-78
2021/04/14 06:15:45;;;;;;;6.40;3.10;;;;;;;;;;5026778;28;20198;-77
2021/04/14 06:18:10;;;;;;;9.33;3.67;;;;;;;;;;5020729;28;20821;-77
2021/04/14 06:20:39;;;;;;;9.00;3.90;;;;;;;;;;5017180;28;20227;-77
2021/04/14 06:23:08;;;;;;;10.40;3.93;;;;;;;;;;5020194;28;20719;-76
2021/04/14 06:25:55;;;;;;;11.73;3.47;;;;;;;;;;5016190;28;20187;-77
2021/04/14 06:28:23;;;;;;;11.50;3.67;;;;;;;;;;5021982;28;20187;-77
2021/04/14 06:30:48;;;;;;;8.50;3.50;;;;;;;;;;5005905;28;20780;-78
2021/04/14 06:33:15;;;;;;;7.27;3.20;;;;;;;;;;5020163;28;20318;-77
2021/04/14 06:35:41;;;;;;;7.10;3.03;;;;;;;;;;5018527;28;20187;-77
2021/04/14 06:38:07;;;;;;;6.27;2.90;;;;;;;;;;4993879;28;20195;-77
2021/04/14 06:40:50;;;;;;;6.70;3.20;;;;;;;;;;5005477;28;20261;-75
2021/04/14 06:43:18;;;;;;;8.37;3.13;;;;;;;;;;5018893;28;20205;-76
2021/04/14 06:45:51;;;;;;;13.73;4.03;;;;;;;;;;5018861;28;20237;-76
2021/04/14 06:48:42;;;;;;;8.77;3.60;;;;;;;;;;5020884;28;20219;-76
2021/04/14 06:51:22;;;;;;;14.80;4.13;;;;;;;;;;5011443;28;20209;-76
2021/04/14 06:54:12;;;;;;;11.93;3.90;;;;;;;;;;5006148;28;20631;-76
2021/04/14 06:56:40;;;;;;;10.10;3.80;;;;;;;;;;5020297;28;20215;-76
2021/04/14 06:59:10;;;;;;;7.83;3.53;;;;;;;;;;5021692;28;20206;-75
2021/04/14 07:01:48;;;;;;;15.30;3.67;;;;;;;;;;5006794;28;20206;-77
2021/04/14 07:04:20;;;;;;;10.97;3.93;;;;;;;;;;5022929;28;20206;-74
2021/04/14 07:06:48;;;;;;;8.97;3.70;;;;;;;;;;5021922;28;20233;-77
2021/04/14 07:09:36;;;;;;;12.03;3.63;;;;;;;;;;5018730;28;20672;-77
2021/04/14 07:12:05;;;;;;;9.73;3.35;;;;;;;;;;5026438;28;20693;-75
2021/04/14 07:14:30;;;;;;;8.98;3.22;;;;;;;;;;5025467;28;20202;-76
2021/04/14 07:17:10;;;;;;;6.97;3.00;;;;;;;;;;5017049;28;20198;-77
2021/04/14 07:19:49;;;;;;;16.45;3.80;;;;;;;;;;5019622;28;20674;-76
2021/04/14 07:22:53;;;;;;;13.38;3.45;;;;;;;;;;5019805;28;20202;-77
2021/04/14 07:25:38;;;;;;;13.52;3.65;;;;;;;;;;5018212;28;20713;-77
2021/04/14 07:28:15;;;;;;;6.97;3.78;;;;;;;;;;5017870;28;20564;-77
2021/04/14 07:30:51;;;;;;;9.27;3.40;;;;;;;;;;5008055;28;20198;-77
2021/04/14 07:33:28;;;;;;;6.07;3.28;;;;;;;;;;5014759;28;20202;-77
2021/04/14 07:36:06;;;;;;;6.63;3.80;;;;;;;;;;5019779;28;20186;-77
2021/04/14 07:38:56;;;;;;;10.00;3.65;;;;;;;;;;5023341;28;20210;-77
2021/04/14 07:41:29;;;;;;;9.88;4.22;;;;;;;;;;5025006;28;20281;-77
2021/04/14 07:44:15;;;;;;;10.75;4.15;;;;;;;;;;5025132;28;20194;-76
2021/04/14 07:46:45;;;;;;;7.05;3.67;;;;;;;;;;5027289;28;20194;-77
2021/04/14 07:49:11;;;;;;;8.60;3.67;;;;;;;;;;5026269;28;20659;-77
2021/04/14 07:51:36;;;;;;;6.72;3.67;;;;;;;;;;5027657;28;20206;-77
2021/04/14 07:54:13;;;;;;;9.40;3.50;;;;;;;;;;5027551;28;20203;-78
2021/04/14 07:56:56;;;;;;;10.80;3.70;;;;;;;;;;5031720;28;20194;-78
2021/04/14 07:59:26;;;;;;;7.95;3.53;;;;;;;;;;5024570;28;20207;-78
2021/04/14 08:02:32;;;;;;;7.07;3.50;;;;;;;;;;5023242;28;20205;-77
2021/04/14 08:05:30;;;;;;;9.50;3.75;;;;;;;;;;4983466;28;20679;-76
2021/04/14 08:07:55;;;;;;;9.85;3.33;;;;;;;;;;5025467;28;20206;-77
2021/04/14 08:10:28;;;;;;;7.95;2.95;;;;;;;;;;5026524;28;20820;-76
2021/04/14 08:13:04;;;;;;;11.40;3.10;;;;;;;;;;5024729;28;20242;-77
2021/04/14 08:15:44;;;;;;;9.97;2.80;;;;;;;;;;5028823;28;20194;-78
2021/04/14 08:18:22;;;;;;;10.53;3.27;;;;;;;;;;5027498;28;20221;-78
2021/04/14 08:20:50;;;;;;;15.00;3.00;;;;;;;;;;5023874;28;20190;-77
2021/04/14 08:23:24;;;;;;;7.57;2.83;;;;;;;;;;5024866;28;20775;-77
2021/04/14 08:25:53;;;;;;;6.68;2.53;;;;;;;;;;5028133;28;21238;-77
2021/04/14 08:28:45;;;;;;;12.43;2.80;;;;;;;;;;5018582;28;20705;-79
2021/04/14 08:31:44;;;;;;;7.68;2.60;;;;;;;;;;5026896;28;20194;-77
2021/04/14 08:34:28;;;;;;;9.43;3.60;;;;;;;;;;5020541;28;20222;-76
2021/04/14 08:36:58;;;;;;;11.50;3.50;;;;;;;;;;5026813;28;20248;-76
2021/04/14 08:39:28;;;;;;;11.40;2.70;;;;;;;;;;5022607;28;20246;-77
2021/04/14 08:42:14;;;;;;;13.17;3.17;;;;;;;;;;5019537;28;20282;-77
2021/04/14 08:44:44;;;;;;;8.70;2.80;;;;;;;;;;5016050;28;21181;-76
2021/04/14 08:47:12;;;;;;;5.57;2.30;;;;;;;;;;5019812;28;20225;-77
2021/04/14 08:49:39;;;;;;;8.60;3.13;;;;;;;;;;5023967;28;20242;-77
2021/04/14 08:52:08;;;;;;;7.97;2.77;;;;;;;;;;5019051;28;20238;-76
2021/04/14 08:54:35;;;;;;;10.87;2.87;;;;;;;;;;5022639;28;20230;-77
2021/04/14 08:57:01;;;;;;;10.07;2.30;;;;;;;;;;5024345;28;20198;-76
2021/04/14 08:59:27;;;;;;;7.27;2.30;;;;;;;;;;5020339;28;20215;-77
2021/04/14 09:01:53;;;;;;;6.70;2.23;;;;;;;;;;5019665;28;20199;-77
2021/04/14 09:04:20;;;;;;;8.10;2.00;;;;;;;;;;5015914;28;20187;-77
2021/04/14 09:06:47;;;;;;;7.03;2.00;;;;;;;;;;5019471;28;20727;-77
2021/04/14 09:09:18;;;;;;;8.63;2.40;;;;;;;;;;4998029;28;20291;-76
2021/04/14 09:11:55;;;;;;;6.20;2.20;;;;;;;;;;5012578;28;20682;-77
2021/04/14 09:14:25;;;;;;;7.90;1.87;;;;;;;;;;5016353;28;20226;-77
2021/04/14 09:16:52;;;;;;;6.63;1.93;;;;;;;;;;5009629;28;20210;-75
2021/04/14 09:19:28;;;;;;;9.57;2.17;;;;;;;;;;5020377;28;20687;-76
2021/04/14 09:22:29;;;;;;;9.73;1.90;;;;;;;;;;5020165;28;20638;-77
2021/04/14 09:25:10;;;;;;;5.37;1.90;;;;;;;;;;5021107;28;20206;-76
2021/04/14 09:27:36;;;;;;;9.17;2.53;;;;;;;;;;5019556;28;20805;-76
2021/04/14 09:30:47;;;;;;;5.07;1.77;;;;;;;;;;5022441;28;20299;-77
2021/04/14 09:33:17;;;;;;;9.53;2.90;;;;;;;;;;5021711;28;20215;-77
2021/04/14 09:36:04;;;;;;;5.50;2.17;;;;;;;;;;5024675;28;20248;-74
2021/04/14 09:38:37;;;;;;;6.17;2.00;;;;;;;;;;5022619;28;20213;-76
2021/04/14 09:41:13;;;;;;;8.00;2.10;;;;;;;;;;5018686;28;20195;-77
2021/04/14 09:43:42;;;;;;;4.93;2.17;;;;;;;;;;5021246;28;20194;-76
2021/04/14 09:46:25;;;;;;;5.97;1.90;;;;;;;;;;5018279;28;20199;-77
2021/04/14 09:48:50;;;;;;;4.23;1.77;;;;;;;;;;5019773;28;20340;-77
2021/04/14 09:51:33;;;;;;;6.73;2.00;;;;;;;;;;5020541;28;20202;-77
2021/04/14 09:54:31;;;;;;;5.90;1.70;;;;;;;;;;5021748;28;20218;-76
2021/04/14 09:56:59;;;;;;;6.10;1.57;;;;;;;;;;5007958;28;20210;-76
2021/04/14 09:59:30;;;;;;;4.10;1.33;;;;;;;;;;5018121;28;20302;-76
2021/04/14 10:02:15;;;;;;;4.63;1.90;;;;;;;;;;5016138;28;20548;-76
2021/04/14 10:04:42;;;;;;;4.77;1.67;;;;;;;;;;5020067;28;20198;-77
2021/04/14 10:07:31;;;;;;;4.63;1.80;;;;;;;;;;5018463;28;20244;-75
2021/04/14 10:10:08;;;;;;;6.53;1.87;;;;;;;;;;5016695;28;20267;-76
2021/04/14 10:12:34;;;;;;;2.83;1.40;;;;;;;;;;5008208;28;20238;-77
2021/04/14 10:15:00;;;;;;;6.40;1.77;;;;;;;;;;5020921;28;20678;-76
2021/04/14 10:17:30;;;;;;;5.00;1.60;;;;;;;;;;5026283;28;20229;-82
2021/04/14 10:20:08;;;;;;;4.57;1.40;;;;;;;;;;5026493;28;20274;-81
2021/04/14 10:22:46;;;;;;;5.20;1.70;;;;;;;;;;5027613;28;20639;-82
2021/04/14 10:25:26;;;;;;;2.53;1.00;;;;;;;;;;5031613;28;20210;-81
2021/04/14 10:28:08;;;;;;;2.53;1.07;;;;;;;;;;5014324;28;20182;-81
2021/04/14 10:30:36;;;;;;;2.80;1.30;;;;;;;;;;5028080;28;20210;-79
2021/04/14 10:33:08;;;;;;;7.70;1.90;;;;;;;;;;5026906;28;20851;-80
2021/04/14 10:35:34;;;;;;;8.27;1.77;;;;;;;;;;5025342;28;20201;-80
2021/04/14 10:38:00;;;;;;;3.83;1.77;;;;;;;;;;5028225;28;20206;-79
2021/04/14 10:40:48;;;;;;;7.87;1.93;;;;;;;;;;5033276;28;20206;-82
2021/04/14 10:43:21;;;;;;;4.43;1.53;;;;;;;;;;5027236;28;20218;-80
2021/04/14 10:46:03;;;;;;;7.50;1.90;;;;;;;;;;5012381;28;20882;-79
2021/04/14 10:48:29;;;;;;;7.63;1.80;;;;;;;;;;5032554;28;20384;-79
2021/04/14 10:51:19;;;;;;;6.10;2.37;;;;;;;;;;5035563;28;20221;-79
2021/04/14 10:53:46;;;;;;;4.07;1.67;;;;;;;;;;5037948;28;20206;-79
2021/04/14 10:56:14;;;;;;;7.50;1.60;;;;;;;;;;5035018;28;20198;-79
2021/04/14 10:58:40;;;;;;;3.80;1.73;;;;;;;;;;5029100;28;20268;-75
2021/04/14 11:01:14;;;;;;;4.13;1.40;;;;;;;;;;5021386;28;20195;-75
2021/04/14 11:03:49;;;;;;;2.37;1.23;;;;;;;;;;5020099;28;20205;-77
2021/04/14 11:06:15;;;;;;;4.10;1.50;;;;;;;;;;5023717;28;20191;-77
2021/04/14 11:08:42;;;;;;;4.57;1.30;;;;;;;;;;5025106;28;20222;-77
2021/04/14 11:11:07;;;;;;;4.27;1.60;;;;;;;;;;5019102;28;20191;-77
2021/04/14 11:13:40;;;;;;;6.63;1.40;;;;;;;;;;5025752;28;20632;-77
2021/04/14 11:16:10;;;;;;;3.03;1.00;;;;;;;;;;5026862;28;20737;-78
2021/04/14 11:18:37;;;;;;;4.33;1.10;;;;;;;;;;5015929;28;20317;-77
2021/04/14 11:23:32;;;;;;;3.30;0.90;;;;;;;;;;5021294;28;20269;-77
2021/04/14 11:26:17;;;;;;;4.77;1.93;;;;;;;;;;5020108;28;20221;-77
2021/04/14 11:28:52;;;;;;;1.53;1.20;;;;;;;;;;5020281;28;20214;-77
2021/04/14 11:31:31;;;;;;;1.60;0.77;;;;;;;;;;5018928;28;20220;-77
2021/04/14 11:33:58;;;;;;;2.70;0.90;;;;;;;;;;5011260;28;20246;-77
2021/04/14 11:36:26;;;;;;;4.53;1.10;;;;;;;;;;5014427;28;20933;-77
2021/04/14 11:39:09;;;;;;;3.50;1.10;;;;;;;;;;5023485;28;20211;-78
2021/04/14 11:41:38;;;;;;;7.47;1.23;;;;;;;;;;5021686;28;20259;-78
2021/04/14 11:44:36;;;;;;;4.17;1.37;;;;;;;;;;5029484;28;20194;-78
2021/04/14 11:47:07;;;;;;;3.37;1.13;;;;;;;;;;5015602;28;20246;-76
2021/04/14 11:49:37;;;;;;;4.43;1.47;;;;;;;;;;5021172;28;20206;-77
2021/04/14 11:52:20;;;;;;;9.07;1.90;;;;;;;;;;5017679;28;20310;-77
2021/04/14 11:54:47;;;;;;;3.50;1.40;;;;;;;;;;5022485;28;20232;-76
2021/04/14 11:57:12;;;;;;;3.37;1.60;;;;;;;;;;5028635;28;20713;-78
2021/04/14 11:59:40;;;;;;;4.13;1.30;;;;;;;;;;5029895;28;20246;-78
2021/04/14 12:02:11;;;;;;;5.10;1.60;;;;;;;;;;5026361;28;20186;-77
2021/04/14 12:04:38;;;;;;;4.53;2.10;;;;;;;;;;5025843;28;20195;-79
2021/04/14 12:07:05;;;;;;;4.13;1.87;;;;;;;;;;5024002;28;20207;-77
2021/04/14 12:09:31;;;;;;;4.87;1.67;;;;;;;;;;5024536;28;20289;-78
2021/04/14 12:12:14;;;;;;;5.23;2.07;;;;;;;;;;5018561;28;20419;-77
2021/04/14 12:14:42;;;;;;;3.80;1.50;;;;;;;;;;5019980;28;20204;-77
2021/04/14 12:17:11;;;;;;;5.17;1.70;;;;;;;;;;5022469;28;20203;-77
2021/04/14 12:19:37;;;;;;;4.63;1.67;;;;;;;;;;5017036;28;20572;-77
2021/04/14 12:22:02;;;;;;;2.87;1.47;;;;;;;;;;5021495;28;20195;-77
2021/04/14 12:24:27;;;;;;;5.13;2.33;;;;;;;;;;5028038;28;20215;-77
2021/04/14 12:26:53;;;;;;;4.20;1.50;;;;;;;;;;5025402;28;20205;-78
2021/04/14 12:29:18;;;;;;;4.70;2.20;;;;;;;;;;5030968;28;20276;-76
2021/04/14 12:31:44;;;;;;;8.43;2.37;;;;;;;;;;5026688;28;20218;-77
2021/04/14 12:34:10;;;;;;;5.37;1.73;;;;;;;;;;5028410;28;20210;-78
2021/04/14 12:36:40;;;;;;;5.03;1.93;;;;;;;;;;5033228;28;20214;-78
2021/04/14 12:39:07;;;;;;;6.57;1.83;;;;;;;;;;5022917;28;20278;-78
2021/04/14 12:41:38;;;;;;;2.93;1.90;;;;;;;;;;5024053;28;20190;-76
2021/04/14 12:44:04;;;;;;;3.67;1.70;;;;;;;;;;5026824;28;20187;-76
2021/04/14 12:46:30;;;;;;;3.80;1.90;;;;;;;;;;5030200;28;20273;-78
2021/04/14 12:48:55;;;;;;;4.83;1.90;;;;;;;;;;5032369;28;20238;-77
2021/04/14 12:51:29;;;;;;;4.60;1.40;;;;;;;;;;5034810;28;20238;-77
2021/04/14 12:54:06;;;;;;;4.13;1.60;;;;;;;;;;5032390;28;20229;-77
2021/04/14 12:56:35;;;;;;;8.00;1.50;;;;;;;;;;5020108;28;20233;-78
2021/04/14 12:59:05;;;;;;;4.20;1.60;;;;;;;;;;5022540;28;20281;-77
2021/04/14 13:01:30;;;;;;;5.40;1.63;;;;;;;;;;5027026;28;20273;-76
2021/04/14 13:04:33;;;;;;;5.13;1.40;;;;;;;;;;5026772;28;20250;-78
2021/04/14 13:07:05;;;;;;;4.60;1.50;;;;;;;;;;5026673;28;20246;-77
2021/04/14 13:09:35;;;;;;;3.97;1.33;;;;;;;;;;5027282;28;20309;-77
2021/04/14 13:12:06;;;;;;;2.90;1.60;;;;;;;;;;5030246;28;20213;-77
2021/04/14 13:14:32;;;;;;;3.57;1.30;;;;;;;;;;5029401;28;20214;-77
2021/04/14 13:17:05;;;;;;;3.63;1.47;;;;;;;;;;5028597;28;20732;-77
2021/04/14 13:19:30;;;;;;;6.73;1.50;;;;;;;;;;5032273;28;20293;-77
2021/04/14 13:22:07;;;;;;;5.63;1.70;;;;;;;;;;5028188;28;20651;-77
2021/04/14 13:24:45;;;;;;;3.10;1.50;;;;;;;;;;5022570;28;20198;-77
2021/04/14 13:27:26;;;;;;;5.17;1.30;;;;;;;;;;5018443;28;20199;-78
2021/04/14 13:30:00;;;;;;;2.90;1.20;;;;;;;;;;5022291;28;20210;-77
2021/04/14 13:32:34;;;;;;;3.53;1.23;;;;;;;;;;5033290;28;20249;-78
2021/04/14 13:35:07;;;;;;;3.03;1.40;;;;;;;;;;5032599;28;20201;-78
2021/04/14 13:37:39;;;;;;;3.93;1.87;;;;;;;;;;5029368;28;20698;-79
2021/04/14 13:40:13;;;;;;;3.93;1.53;;;;;;;;;;5025739;28;20789;-75
2021/04/14 13:42:52;;;;;;;4.60;1.90;;;;;;;;;;5021750;28;20191;-76
2021/04/14 13:45:41;;;;;;;2.50;1.20;;;;;;;;;;5020322;28;20328;-77
2021/04/14 13:48:15;;;;;;;4.97;1.58;;;;;;;;;;5023681;28;20786;-77
2021/04/14 13:51:05;;;;;;;3.37;1.30;;;;;;;;;;5018130;28;20206;-77
2021/04/14 13:53:34;;;;;;;3.47;1.40;;;;;;;;;;5018965;28;20258;-77
2021/04/14 13:56:22;;;;;;;5.73;1.33;;;;;;;;;;5020875;28;20195;-77
2021/04/14 13:58:57;;;;;;;2.87;1.60;;;;;;;;;;5023548;28;20206;-77
2021/04/14 14:01:24;;;;;;;3.23;1.23;;;;;;;;;;5020681;28;20202;-75
2021/04/14 14:03:53;;;;;;;4.73;1.60;;;;;;;;;;5020747;28;20201;-77
2021/04/14 14:06:48;;;;;;;6.13;1.57;;;;;;;;;;5022370;28;20231;-75
2021/04/14 14:09:19;;;;;;;3.60;1.37;;;;;;;;;;5021418;28;20226;-77
2021/04/14 14:11:45;;;;;;;7.37;1.73;;;;;;;;;;5023803;28;20699;-77
2021/04/14 14:14:13;;;;;;;4.47;1.50;;;;;;;;;;5022564;28;20301;-76
2021/04/14 14:16:45;;;;;;;4.50;0.97;;;;;;;;;;5022973;28;20194;-77
2021/04/14 14:19:17;;;;;;;2.60;1.27;;;;;;;;;;5021647;28;20238;-75
2021/04/14 14:21:42;;;;;;;4.37;1.60;;;;;;;;;;5022860;28;20199;-76
2021/04/14 14:24:08;;;;;;;5.03;1.80;;;;;;;;;;5019992;28;20200;-77
2021/04/14 14:26:35;;;;;;;4.87;1.50;;;;;;;;;;5021930;28;20290;-77
2021/04/14 14:29:04;;;;;;;5.83;2.00;;;;;;;;;;5019762;28;20222;-77
2021/04/14 14:31:32;;;;;;;3.20;1.60;;;;;;;;;;5017663;28;20281;-76
2021/04/14 14:33:59;;;;;;;5.83;1.87;;;;;;;;;;5019844;28;20234;-78
2021/04/14 14:36:46;;;;;;;4.40;1.57;;;;;;;;;;5027154;28;20277;-79
2021/04/14 14:39:32;;;;;;;3.17;1.70;;;;;;;;;;5023933;28;20286;-77
2021/04/14 14:42:07;;;;;;;1.90;1.50;;;;;;;;;;5023164;28;20186;-77
2021/04/14 14:44:38;;;;;;;3.03;1.40;;;;;;;;;;5020365;28;20205;-75
2021/04/14 14:47:09;;;;;;;3.07;1.20;;;;;;;;;;5019096;28;20202;-76
2021/04/14 14:49:37;;;;;;;3.13;1.47;;;;;;;;;;5020723;28;20267;-74
2021/04/14 14:52:05;;;;;;;2.60;1.07;;;;;;;;;;5021519;28;20885;-76
2021/04/14 14:54:33;;;;;;;1.50;0.90;;;;;;;;;;5023067;28;20229;-76
2021/04/14 14:57:19;;;;;;;1.27;0.77;;;;;;;;;;5021324;28;21789;-76
2021/04/14 14:59:45;;;;;;;1.10;0.90;;;;;;;;;;5007269;28;20264;-74
2021/04/14 15:02:20;;;;;;;2.40;1.00;;;;;;;;;;5019997;28;20855;-77